Air Sicilia Virtual Airways - Route

Air Sicilia Virtual Airways - SIC082D

( IT ) LICC - 13:50
Catania-Fontanarossa Airport
CATANIA ( CTA )
plane_to ( IT ) LIML - 15:20
Linate Airport
MILAN ( LIN )

AIRPORT NEAR NAVIGATION AIDS

Type Name Frequency
NDB Catania 345 KHZ
VOR-DME Catania Fontanarossa 116250 KHZ
NDB Catania Fontanarossa 407 KHZ

METAR / TAF
LICC 180350Z 24004KT CAVOK 21/20 Q1014

RUNWAY INFORMATION

Runway Runway length Runway width Runway elevation Runway displaced threshold Runway heading
08 7989 148 37 312 84
26 7989 148 17 279 264

AIRPORT FREQUENCIES

Type Name Frequency
APP APP 119.25 MHZ
DIR DIRECTOR 120.8 MHZ
GND GND 129.725 MHZ
TWR TWR 118.7 MHZ

AIRPORT NEAR NAVIGATION AIDS

Type Name Frequency
VOR-DME Linate 112250 KHZ
NDB Linate 386 KHZ

METAR / TAF
LIML 180350Z VRB01KT CAVOK 20/18 Q1016 NOSIG

RUNWAY INFORMATION

Runway Runway length Runway width Runway elevation Runway displaced threshold Runway heading
18L 8005 197 353 0 176
36R 8005 197 337 0 356
18R 1972 72 353 0 176
36L 1972 72 349 0 356

AIRPORT FREQUENCIES

Type Name Frequency
APP MILANO APP 132.7 MHZ
ATIS ATIS 135.55 MHZ
DEP MILANO DEP 126.75 MHZ
GND GND 121.8 MHZ
TWR TWR 118.1 MHZ

Flightplan

LIBRO M871 ENEPA Z925 AMANO M621 GILIO Q704 KARDU Q703 KALMO

Air Sicilia Virtual Airways Fleets

AVAILABLE AIRCRAFTS for route at this time in Catania-Fontanarossa Airport
A319 - Airbus A319
( UE ) AIRBUS

Aircraft in fleet: 1

A320 - Airbus A320
( UE ) AIRBUS

Aircraft in fleet: 3

B738 - Boeing 737-800 NGX
( US ) BOEING

Aircraft in fleet: 5

545.53 NM

Distance in nautical miles.

€ 80,00

Ticket price for this flight.

1.42 h.

Estimated flight time.



07-08-2018
Aerosoft Professional Flight Planner PFPX

PFPX - Professional Flight Planner X - è un nuovo ed innovativo strumento di pianificazione del volo sviluppato da piloti e dispatcher del mondo reale. È un'aggiunta preziosa e realistica alla tua esperienza di simulaz ....


19-07-2018
Aerosoft Oslo X

L'Aeroporto di Oslo-Gardermoen (IATA: OSL, ICAO: ENGM) è il principale aeroporto norvegese e il 19° in Europa, è situato vicino alla cittadina di Ullensaker nella contea di Akershus e serve la capitale Oslo. Ha sostit ....


21-06-2018
Aerosoft Malpensa Professional P3Dv4

L'Aeroporto di Milano-Malpensa (IATA: MXP, ICAO: LIMC) è un aeroporto italiano situato nella provincia di Varese in Lombardia, ma considerato come il principale aeroporto di Milano.

È il secondo aeroporto ital ....


06-06-2018
1° Raduno Air Sicilia Virtual - parla il C.E.O.

Grande successo per il 1° Raduno di Compagnia dell'Air Sicilia Virtual, che ha visto i membri della Crew presenti il 4 giugno 2018 a Thiene ( VI ) , cimentarsi dal vivo con le reali ....


24-05-2018
Aerosoft Airport Rome XP

Tra le nostre recensioni non poteva mancare certo la nuova uscita Aerosoft per X-Plane, stiamo parlando di Airport Rome XP, finalmente un Add-on pay completo dell'Aeroporto di Roma Fiumicino per gli utilizzatori del simu ....